Погода Чампотонна 2 недели

Кампече, Мексика

03 - 15 марта
  • 03марта
    Сегодня
    +23°
    +34°
    Практически безоблачно
    ВремяПогодаТемператураВлажностьДавлениеВетер, м/сВероятность осадков
    00:00Ясно и безоблачно+26°C77 %760 мм3.3 м/с2 %
    03:00Ясно и безоблачно+24°C74 %759 мм4.0 м/с2 %
    06:00Ясно и безоблачно+23°C87 %760 мм4.7 м/с2 %
    09:00Ясно и безоблачно+28°C68 %761 мм4.1 м/с2 %
    12:00Ясно и безоблачно+33°C46 %759 мм0.8 м/с3 %
    15:00Практически безоблачно+33°C58 %757 мм3.8 м/с10 %
    18:00Ясно и безоблачно+29°C73 %757 мм3.7 м/с7 %
    21:00Ясно и безоблачно+27°C73 %758 мм4.0 м/с2 %
  • 04марта
    Понедельник
    +23°
    +37°
    Облачно с прояснениями
    ВремяПогодаТемператураВлажностьДавлениеВетер, м/сВероятность осадков
    00:00Ясно и безоблачно+27°C65 %758 мм4.7 м/с2 %
    03:00Ясно и безоблачно+24°C76 %758 мм5.0 м/с2 %
    06:00Ясно и безоблачно+24°C83 %758 мм4.9 м/с2 %
    09:00Ясно и безоблачно+28°C67 %759 мм5.1 м/с2 %
    12:00Облачно с прояснениями+34°C45 %758 мм3.7 м/с2 %
    15:00Облачно с прояснениями+36°C44 %755 мм1.8 м/с2 %
    18:00Ясно и безоблачно+30°C65 %755 мм4.2 м/с2 %
    21:00Ясно и безоблачно+30°C50 %757 мм4.8 м/с2 %
  • 05марта
    Вторник
    +23°
    +36°
    Практически безоблачно
    ВремяПогодаТемператураВлажностьДавлениеВетер, м/сВероятность осадков
    00:00Ясно и безоблачно+27°C64 %757 мм5.0 м/с2 %
    03:00Ясно и безоблачно+24°C81 %756 мм5.0 м/с2 %
    06:00Ясно и безоблачно+24°C87 %757 мм5.6 м/с2 %
    09:00Практически безоблачно+29°C67 %758 мм4.8 м/с2 %
    12:00Небольшая облачность+35°C41 %756 мм2.3 м/с2 %
    15:00Практически безоблачно+36°C52 %754 мм4.0 м/с2 %
    18:00Ясно и безоблачно+30°C70 %755 мм3.2 м/с2 %
    21:00Ясно и безоблачно+28°C72 %757 мм3.5 м/с2 %
  • 06марта
    Среда
    +23°
    +34°
    Ясно и безоблачно
    ВремяПогодаТемператураВлажностьДавлениеВетер, м/сВероятность осадков
    00:00Ясно и безоблачно+27°C69 %757 мм2.3 м/с2 %
    03:00Облачно с прояснениями+25°C80 %756 мм2.7 м/с2 %
    06:00Ясно и безоблачно+24°C88 %757 мм2.4 м/с2 %
    09:00Ясно и безоблачно+29°C70 %759 мм2.2 м/с2 %
    12:00Ясно и безоблачно+33°C60 %757 мм3.4 м/с3 %
    15:00Ясно и безоблачно+32°C65 %756 мм5.1 м/с13 %
    18:00Ясно и безоблачно+29°C82 %757 мм2.8 м/с4 %
    21:00Ясно и безоблачно+27°C89 %758 мм3.0 м/с2 %
Мы используем cookies
Соглашаюсь